createdAt,value
2019-01-03T08:02:06.755Z,98479.92
2019-01-03T08:04:36.750Z,98496.02
2019-01-03T08:07:05.064Z,98491.44
2019-01-03T08:09:32.659Z,98482.15
2019-01-03T08:12:02.580Z,98496.00
2019-01-03T08:14:42.136Z,98484.52
2019-01-03T08:17:14.801Z,98484.52
2019-01-03T08:19:43.773Z,98475.39
2019-01-03T08:22:15.803Z,98469.11
2019-01-03T08:24:50.014Z,98460.67
2019-01-03T08:27:20.062Z,98461.42
2019-01-03T08:29:49.175Z,98453.95
2019-01-03T08:32:20.084Z,98464.00
2019-01-03T08:35:03.591Z,98471.81
2019-01-03T08:37:25.925Z,98464.53
2019-01-03T08:40:03.089Z,98469.20
2019-01-03T08:42:33.043Z,98466.14
2019-01-03T08:45:14.449Z,98466.48
2019-01-03T08:47:42.136Z,98468.59
2019-01-03T08:50:09.204Z,98465.40
2019-01-03T08:52:38.753Z,98473.52
2019-01-03T08:55:29.797Z,98466.83
2019-01-03T08:57:56.141Z,98472.08
2019-01-03T09:03:10.884Z,98467.35
2019-01-03T09:05:46.289Z,98467.92
2019-01-03T09:08:25.734Z,98456.17
2019-01-03T09:10:56.637Z,98454.61
2019-01-03T09:13:23.456Z,98450.96
2019-01-03T09:15:50.636Z,98462.33
2019-01-03T09:18:17.992Z,98459.22
2019-01-03T09:20:45.568Z,98457.98
2019-01-03T09:23:17.922Z,98467.30
2019-01-03T09:25:58.834Z,98463.71
2019-01-03T09:28:31.900Z,98475.17
2019-01-03T09:31:03.750Z,98480.87
2019-01-03T09:33:37.685Z,98462.63
2019-01-03T09:36:06.954Z,98463.52
2019-01-03T09:38:48.371Z,98467.23
2019-01-03T09:41:18.601Z,98462.37
2019-01-03T09:43:53.203Z,98473.27
2019-01-03T09:46:20.495Z,98463.74
2019-01-03T09:48:48.406Z,98461.77
2019-01-03T09:51:17.501Z,98464.16
2019-01-03T09:53:47.015Z,98454.14
2019-01-03T09:56:14.639Z,98462.71
2019-01-03T09:58:42.495Z,98459.29
2019-01-03T10:01:10.393Z,98466.88
2019-01-03T10:03:39.942Z,98461.27
2019-01-03T10:06:26.455Z,98465.30
2019-01-03T10:08:55.478Z,98462.31
2019-01-03T10:11:23.990Z,98463.28
2019-01-03T10:13:54.060Z,98469.66
2019-01-03T10:16:25.015Z,98473.28
2019-01-03T10:18:53.347Z,98469.72
2019-01-03T10:21:23.932Z,98467.59
2019-01-03T10:23:58.546Z,98468.06
2019-01-03T10:26:22.962Z,98469.94
2019-01-03T10:28:52.485Z,98467.36
2019-01-03T10:31:22.479Z,98462.84
2019-01-03T10:33:51.310Z,98460.17
2019-01-03T10:36:27.561Z,98458.20
2019-01-03T10:38:54.182Z,98461.15
2019-01-03T10:41:24.228Z,98452.67
2019-01-03T10:43:50.813Z,98461.94
2019-01-03T10:46:17.907Z,98460.05
2019-01-03T10:48:47.516Z,98441.32
2019-01-03T10:51:17.658Z,98449.81
2019-01-03T10:53:47.711Z,98450.61
2019-01-03T10:56:14.874Z,98448.25
2019-01-03T10:58:42.245Z,98438.19
2019-01-03T11:01:11.853Z,98433.17
2019-01-03T11:03:39.507Z,98428.34
2019-01-03T11:06:19.152Z,98426.66
2019-01-03T11:08:49.776Z,98421.53
2019-01-03T11:11:16.339Z,98426.16
2019-01-03T11:13:44.272Z,98419.70
2019-01-03T11:16:17.217Z,98402.44
2019-01-03T11:18:44.377Z,98405.31
2019-01-03T11:21:14.735Z,98410.49
2019-01-03T11:23:45.121Z,98403.68
2019-01-03T11:26:24.570Z,98399.89
2019-01-03T11:28:51.508Z,98393.70
2019-01-03T11:31:19.740Z,98396.42
2019-01-03T11:33:46.800Z,98384.46
2019-01-03T11:36:21.971Z,98381.81
2019-01-03T11:38:48.737Z,98379.91
2019-01-03T11:41:21.056Z,98371.35
2019-01-03T11:43:53.470Z,98377.63
2019-01-03T11:46:41.489Z,98362.63
2019-01-03T11:49:12.372Z,98355.25
2019-01-03T11:51:42.228Z,98351.80
2019-01-03T11:54:12.256Z,98351.80
2019-01-03T11:56:46.604Z,98354.64
2019-01-03T11:59:27.460Z,98349.94
2019-01-03T12:01:58.312Z,98339.83
2019-01-03T12:04:29.445Z,98341.68
2019-01-03T12:07:06.165Z,98338.59
2019-01-03T12:09:36.041Z,98337.28
2019-01-03T12:12:14.882Z,98326.58
2019-01-03T12:14:40.406Z,98322.05
2019-01-03T12:17:12.554Z,98318.55
2019-01-03T12:19:41.131Z,98311.84
2019-01-03T12:22:08.202Z,98318.11
2019-01-03T12:24:36.735Z,98306.52
2019-01-03T12:29:50.332Z,98307.52
2019-01-03T12:32:21.302Z,98309.41
2019-01-03T12:34:51.171Z,98302.59
2019-01-03T12:37:22.050Z,98305.03
2019-01-03T12:39:53.326Z,98286.25
2019-01-03T12:42:31.342Z,98296.69
2019-01-03T12:45:02.201Z,98290.48
2019-01-03T12:50:18.105Z,98285.56
2019-01-03T12:55:35.084Z,98288.70
2019-01-03T12:58:02.211Z,98294.42
2019-01-03T13:00:31.470Z,98280.78
2019-01-03T13:03:04.638Z,98281.71
2019-01-03T13:05:33.298Z,98272.00
2019-01-03T13:08:02.588Z,98272.14
2019-01-03T13:10:31.346Z,98267.67
2019-01-03T13:13:01.522Z,98274.62
2019-01-03T13:15:32.052Z,98272.84
2019-01-03T13:18:02.900Z,98265.63
2019-01-03T13:20:31.697Z,98258.61
2019-01-03T13:22:58.865Z,98263.54
2019-01-03T13:25:29.257Z,98248.70
2019-01-03T13:28:04.030Z,98255.28
2019-01-03T13:30:37.840Z,98252.25
2019-01-03T13:33:14.687Z,98251.42
2019-01-03T13:35:44.933Z,98252.47
2019-01-03T13:38:13.580Z,98257.92
2019-01-03T13:43:30.705Z,98261.69
2019-01-03T13:46:00.468Z,98267.52
2019-01-03T13:48:31.796Z,98271.62
2019-01-03T13:51:05.448Z,98268.30
2019-01-03T13:53:35.572Z,98267.39
2019-01-03T13:56:11.553Z,98261.73
2019-01-03T13:58:44.782Z,98260.73
2019-01-03T14:01:14.596Z,98264.38
2019-01-03T14:03:41.219Z,98259.12
2019-01-03T14:06:13.343Z,98259.92
2019-01-03T14:08:42.432Z,98251.60
2019-01-03T14:11:11.454Z,98248.03
2019-01-03T14:13:51.618Z,98248.20
2019-01-03T14:16:21.932Z,98242.27
2019-01-03T14:18:49.030Z,98246.17
2019-01-03T14:21:16.924Z,98246.67
2019-01-03T14:23:47.125Z,98244.63
2019-01-03T14:29:03.481Z,98242.56
2019-01-03T14:31:31.043Z,98235.37
2019-01-03T14:34:00.117Z,98240.02
2019-01-03T14:36:28.437Z,98235.10
2019-01-03T14:38:59.660Z,98241.02
2019-01-03T14:41:32.947Z,98230.59
2019-01-03T14:44:05.297Z,98233.01
2019-01-03T14:46:39.030Z,98226.25
2019-01-03T14:49:06.139Z,98223.28
2019-01-03T14:51:35.327Z,98230.97
2019-01-03T14:54:05.178Z,98221.62
2019-01-03T14:56:35.448Z,98218.09
2019-01-03T14:59:04.351Z,98223.11
2019-01-03T15:01:33.875Z,98224.05
2019-01-03T15:04:03.454Z,98220.97
2019-01-03T15:06:35.243Z,98228.97
2019-01-03T15:09:03.910Z,98223.55
2019-01-03T15:11:31.437Z,98227.41
2019-01-03T15:13:59.025Z,98223.58
2019-01-03T15:16:34.980Z,98222.98
2019-01-03T15:19:06.363Z,98222.50
2019-01-03T15:21:36.014Z,98225.59
2019-01-03T15:24:07.176Z,98213.00
2019-01-03T15:26:38.008Z,98219.59
2019-01-03T15:29:11.227Z,98217.81
2019-01-03T15:31:40.795Z,98213.50
2019-01-03T15:34:08.071Z,98208.99
2019-01-03T15:36:36.426Z,98211.66
2019-01-03T15:39:08.173Z,98207.56
2019-01-03T15:41:36.951Z,98206.92
2019-01-03T15:44:08.038Z,98216.33
2019-01-03T15:46:34.748Z,98210.24
2019-01-03T15:49:06.227Z,98212.59
2019-01-03T15:51:40.602Z,98213.00
2019-01-03T15:54:24.176Z,98215.77
2019-01-03T15:56:55.454Z,98214.34
2019-01-03T15:59:27.792Z,98211.38
2019-01-03T16:01:56.236Z,98214.76
2019-01-03T16:04:23.759Z,98209.73
2019-01-03T16:06:54.015Z,98222.31
2019-01-03T16:12:09.532Z,98218.10
2019-01-03T16:14:38.494Z,98222.64
2019-01-03T16:17:10.177Z,98220.82
2019-01-03T16:19:46.837Z,98228.59
2019-01-03T16:22:17.459Z,98229.27
2019-01-03T16:24:49.681Z,98221.60
2019-01-03T16:30:06.869Z,98223.62
2019-01-03T16:32:38.506Z,98226.06
2019-01-03T16:35:10.262Z,98225.09
2019-01-03T16:37:39.706Z,98224.53
2019-01-03T16:40:08.827Z,98226.31
2019-01-03T16:42:37.151Z,98228.97
2019-01-03T16:45:07.352Z,98227.53
2019-01-03T16:50:25.034Z,98236.87
2019-01-03T16:52:56.313Z,98235.59
2019-01-03T16:55:25.150Z,98236.56
2019-01-03T16:57:55.554Z,98237.50
2019-01-03T17:00:25.761Z,98235.11
2019-01-03T17:02:52.113Z,98227.78
2019-01-03T17:05:21.612Z,98228.56
2019-01-03T17:07:50.967Z,98224.91
2019-01-03T17:10:20.193Z,98227.80
2019-01-03T17:12:49.836Z,98233.55
2019-01-03T17:15:19.862Z,98226.70
2019-01-03T17:17:53.674Z,98231.33
2019-01-03T17:20:21.207Z,98238.13
2019-01-03T17:22:51.396Z,98240.61
2019-01-03T17:25:20.833Z,98238.64
2019-01-03T17:27:53.511Z,98249.37
2019-01-03T17:30:23.131Z,98248.97
2019-01-03T17:32:59.570Z,98251.85
2019-01-03T17:35:30.408Z,98254.20
2019-01-03T17:37:58.707Z,98254.52
2019-01-03T17:40:27.071Z,98259.16
2019-01-03T17:43:08.060Z,98259.02
2019-01-03T17:45:39.386Z,98268.81
2019-01-03T17:48:11.456Z,98268.30
2019-01-03T17:53:26.106Z,98267.56
2019-01-03T17:55:54.260Z,98277.08
2019-01-03T17:58:22.848Z,98292.45
2019-01-03T18:06:25.246Z,98299.41
2019-01-03T18:08:52.306Z,98300.63
2019-01-03T18:11:19.413Z,98317.44
2019-01-03T18:13:52.342Z,98325.98
2019-01-03T18:16:21.663Z,98331.81
2019-01-03T18:18:53.104Z,98339.70
2019-01-03T18:21:20.322Z,98326.75
2019-01-03T18:23:49.745Z,98326.93
2019-01-03T18:26:16.445Z,98316.33
2019-01-03T18:28:44.706Z,98315.47
2019-01-03T18:31:15.250Z,98323.98
2019-01-03T18:33:44.667Z,98319.47
2019-01-03T18:36:11.798Z,98310.85
2019-01-03T18:38:41.557Z,98315.23
2019-01-03T18:41:09.050Z,98312.52
2019-01-03T18:46:22.853Z,98321.23
2019-01-03T18:54:28.464Z,98356.13
2019-01-03T18:56:55.547Z,98356.84
2019-01-03T18:59:26.354Z,98357.55
2019-01-03T19:02:00.090Z,98365.48
2019-01-03T19:04:34.080Z,98361.06
2019-01-03T19:09:44.954Z,98372.14
2019-01-03T19:12:13.925Z,98374.77
2019-01-03T19:14:44.443Z,98376.79
2019-01-03T19:20:04.248Z,98395.11
2019-01-03T19:22:40.818Z,98403.24
2019-01-03T19:25:11.210Z,98408.56
2019-01-03T19:27:43.262Z,98405.64
2019-01-03T19:30:23.694Z,98399.72
2019-01-03T19:32:44.720Z,98403.16
2019-01-03T19:35:13.879Z,98392.28
2019-01-03T19:37:44.218Z,98400.55
2019-01-03T19:40:14.276Z,98393.36
2019-01-03T19:42:44.909Z,98396.77
2019-01-03T19:45:12.860Z,98414.03
2019-01-03T19:47:40.924Z,98411.20
2019-01-03T19:50:08.737Z,98418.16
2019-01-03T19:52:44.339Z,98417.46
2019-01-03T19:55:11.992Z,98411.69
2019-01-03T19:57:41.518Z,98404.92
2019-01-03T20:00:09.746Z,98416.11
2019-01-03T20:02:38.870Z,98426.78
2019-01-03T20:05:15.965Z,98421.38
2019-01-03T20:07:40.719Z,98428.32
2019-01-03T20:10:10.497Z,98418.28
2019-01-03T20:12:43.236Z,98420.56
2019-01-03T20:15:16.809Z,98435.09
2019-01-03T20:17:45.972Z,98414.76
2019-01-03T20:20:17.981Z,98437.09
2019-01-03T20:22:55.227Z,98440.67
2019-01-03T20:25:27.039Z,98432.80
2019-01-03T20:27:56.053Z,98426.08
2019-01-03T20:30:27.604Z,98432.14
2019-01-03T20:32:57.003Z,98426.00
2019-01-03T20:35:25.713Z,98436.86
2019-01-03T20:37:55.895Z,98433.97
2019-01-03T20:40:25.729Z,98438.62
2019-01-03T20:42:54.933Z,98436.52
2019-01-03T20:45:21.771Z,98450.74
2019-01-03T20:47:52.008Z,98437.02
2019-01-03T20:50:22.322Z,98443.95
2019-01-03T20:52:55.783Z,98440.30
2019-01-03T20:55:26.149Z,98446.61
2019-01-03T20:57:55.327Z,98441.31
2019-01-03T21:00:21.915Z,98440.09
2019-01-03T21:02:51.559Z,98437.02
2019-01-03T21:05:21.324Z,98438.22
2019-01-03T21:07:51.844Z,98447.02
2019-01-03T21:10:24.880Z,98448.16
2019-01-03T21:12:51.497Z,98444.95
2019-01-03T21:15:22.146Z,98440.99
2019-01-03T21:17:53.482Z,98441.14
2019-01-03T21:20:20.327Z,98440.48
2019-01-03T21:23:03.541Z,98434.61
2019-01-03T21:25:32.241Z,98437.90
2019-01-03T21:28:02.151Z,98451.30
2019-01-03T21:30:35.952Z,98455.47
2019-01-03T21:36:07.013Z,98449.91
2019-01-03T21:38:34.001Z,98453.08
2019-01-03T21:41:04.062Z,98450.42
2019-01-03T21:43:33.247Z,98454.48
2019-01-03T21:46:02.647Z,98450.91
2019-01-03T21:48:32.254Z,98453.94
2019-01-03T21:51:01.745Z,98454.15
2019-01-03T21:53:30.870Z,98456.45
2019-01-03T21:55:59.451Z,98465.27
2019-01-03T21:58:30.674Z,98462.24
2019-01-03T22:01:02.016Z,98466.84
2019-01-03T22:03:29.417Z,98466.72
2019-01-03T22:06:00.117Z,98470.39
2019-01-03T22:08:29.531Z,98462.66
2019-01-03T22:13:45.056Z,98475.55
2019-01-03T22:16:16.959Z,98472.67
2019-01-03T22:21:30.419Z,98480.38
2019-01-03T22:24:06.702Z,98488.77
2019-01-03T22:26:31.880Z,98486.13
2019-01-03T22:29:04.585Z,98488.83
2019-01-03T22:31:35.886Z,98487.45
2019-01-03T22:34:05.304Z,98496.16
2019-01-03T22:36:34.559Z,98490.75
2019-01-03T22:39:02.428Z,98494.28
2019-01-03T22:41:31.563Z,98503.91
2019-01-03T22:44:01.390Z,98499.21
2019-01-03T22:46:29.065Z,98498.45
2019-01-03T22:48:59.839Z,98504.93
2019-01-03T22:51:31.297Z,98500.11
2019-01-03T22:54:00.996Z,98502.17
2019-01-03T22:56:28.340Z,98498.64
2019-01-03T22:58:59.059Z,98506.95
2019-01-03T23:01:30.983Z,98506.73
2019-01-03T23:04:00.644Z,98501.02
2019-01-03T23:06:28.276Z,98503.61
2019-01-03T23:08:55.779Z,98509.95
2019-01-03T23:11:26.897Z,98509.33
2019-01-03T23:13:55.793Z,98512.34
2019-01-03T23:16:26.764Z,98515.42
2019-01-03T23:18:54.838Z,98517.16
2019-01-03T23:21:22.116Z,98520.17
2019-01-03T23:26:36.265Z,98523.77
2019-01-03T23:29:05.574Z,98525.84
2019-01-03T23:31:42.830Z,98526.53
2019-01-03T23:34:14.259Z,98523.20
2019-01-03T23:36:44.799Z,98523.67
2019-01-03T23:39:14.382Z,98524.11
2019-01-03T23:41:42.216Z,98520.84
2019-01-03T23:44:29.513Z,98525.15
2019-01-03T23:46:56.103Z,98522.84
2019-01-03T23:49:24.081Z,98518.77
2019-01-03T23:51:53.153Z,98518.91
2019-01-03T23:54:23.001Z,98517.88
2019-01-03T23:56:52.969Z,98523.88
2019-01-03T23:59:23.186Z,98517.68
